sensor_id;sensor_type;location;lat;lon;timestamp;pressure;altitude;pressure_sealevel;temperature;humidity
36354;BME280;22383;51.114;13.666;2023-05-24T00:00:05;68089.50;;;8.11;100.00
36354;BME280;22383;51.114;13.666;2023-05-24T00:02:32;68081.78;;;8.07;100.00
36354;BME280;22383;51.114;13.666;2023-05-24T00:04:59;68074.59;;;8.03;100.00
36354;BME280;22383;51.114;13.666;2023-05-24T00:07:27;68076.13;;;8.02;100.00
36354;BME280;22383;51.114;13.666;2023-05-24T00:09:54;68073.66;;;7.97;100.00
36354;BME280;22383;51.114;13.666;2023-05-24T00:12:21;68069.31;;;7.95;100.00
36354;BME280;22383;51.114;13.666;2023-05-24T00:14:49;68069.69;;;7.93;100.00
36354;BME280;22383;51.114;13.666;2023-05-24T00:17:17;68062.53;;;7.89;100.00
36354;BME280;22383;51.114;13.666;2023-05-24T00:19:44;68058.19;;;7.88;100.00
36354;BME280;22383;51.114;13.666;2023-05-24T00:22:11;68064.41;;;7.86;100.00
36354;BME280;22383;51.114;13.666;2023-05-24T00:24:40;68051.22;;;7.79;100.00
36354;BME280;22383;51.114;13.666;2023-05-24T00:27:07;68048.19;;;7.74;100.00
36354;BME280;22383;51.114;13.666;2023-05-24T00:29:34;68043.31;;;7.72;100.00
36354;BME280;22383;51.114;13.666;2023-05-24T00:32:01;68042.16;;;7.71;100.00
36354;BME280;22383;51.114;13.666;2023-05-24T00:34:29;68041.41;;;7.68;100.00
36354;BME280;22383;51.114;13.666;2023-05-24T00:36:56;68031.63;;;7.64;100.00
36354;BME280;22383;51.114;13.666;2023-05-24T00:39:25;68035.19;;;7.62;100.00
36354;BME280;22383;51.114;13.666;2023-05-24T00:41:52;68030.84;;;7.61;100.00
36354;BME280;22383;51.114;13.666;2023-05-24T00:44:20;68032.91;;;7.60;100.00
36354;BME280;22383;51.114;13.666;2023-05-24T00:46:48;68020.88;;;7.54;100.00
36354;BME280;22383;51.114;13.666;2023-05-24T00:49:16;68025.00;;;7.53;100.00
36354;BME280;22383;51.114;13.666;2023-05-24T00:51:44;68025.56;;;7.53;100.00
36354;BME280;22383;51.114;13.666;2023-05-24T00:54:12;68023.88;;;7.52;100.00
36354;BME280;22383;51.114;13.666;2023-05-24T00:56:41;68020.13;;;7.51;100.00
36354;BME280;22383;51.114;13.666;2023-05-24T00:59:09;68020.88;;;7.54;100.00
36354;BME280;22383;51.114;13.666;2023-05-24T01:01:37;68021.59;;;7.50;100.00
36354;BME280;22383;51.114;13.666;2023-05-24T01:04:04;68017.66;;;7.46;100.00
36354;BME280;22383;51.114;13.666;2023-05-24T01:06:47;68013.91;;;7.45;100.00
36354;BME280;22383;51.114;13.666;2023-05-24T01:09:24;68015.94;;;7.45;100.00
36354;BME280;22383;51.114;13.666;2023-05-24T01:12:10;68013.69;;;7.43;100.00
36354;BME280;22383;51.114;13.666;2023-05-24T01:17:37;68005.97;;;7.38;100.00
36354;BME280;22383;51.114;13.666;2023-05-24T01:20:11;68000.31;;;7.33;100.00
36354;BME280;22383;51.114;13.666;2023-05-24T01:23:10;68001.25;;;7.31;100.00
36354;BME280;22383;51.114;13.666;2023-05-24T01:28:30;67991.28;;;7.25;100.00
36354;BME280;22383;51.114;13.666;2023-05-24T01:30:59;67986.19;;;7.20;100.00
36354;BME280;22383;51.114;13.666;2023-05-24T01:33:28;67986.00;;;7.17;100.00
36354;BME280;22383;51.114;13.666;2023-05-24T01:35:56;67978.06;;;7.10;100.00
36354;BME280;22383;51.114;13.666;2023-05-24T01:38:23;67966.94;;;7.03;100.00
36354;BME280;22383;51.114;13.666;2023-05-24T01:40:56;67967.31;;;7.00;100.00
36354;BME280;22383;51.114;13.666;2023-05-24T01:43:33;67959.59;;;6.96;100.00
36354;BME280;22383;51.114;13.666;2023-05-24T01:46:24;67953.00;;;6.92;100.00
36354;BME280;22383;51.114;13.666;2023-05-24T01:51:48;67948.50;;;6.88;100.00
36354;BME280;22383;51.114;13.666;2023-05-24T01:54:20;67947.16;;;6.85;100.00
36354;BME280;22383;51.114;13.666;2023-05-24T01:56:51;67948.31;;;6.86;100.00
36354;BME280;22383;51.114;13.666;2023-05-24T01:59:20;67942.06;;;6.80;100.00
36354;BME280;22383;51.114;13.666;2023-05-24T02:01:49;67944.53;;;6.77;100.00
36354;BME280;22383;51.114;13.666;2023-05-24T02:04:17;67942.44;;;6.78;100.00
36354;BME280;22383;51.114;13.666;2023-05-24T02:06:44;67933.22;;;6.74;100.00
36354;BME280;22383;51.114;13.666;2023-05-24T02:09:11;67941.69;;;6.75;100.00
36354;BME280;22383;51.114;13.666;2023-05-24T02:11:38;67930.97;;;6.72;100.00
36354;BME280;22383;51.114;13.666;2023-05-24T02:14:05;67929.66;;;6.69;100.00
36354;BME280;22383;51.114;13.666;2023-05-24T02:16:32;67921.38;;;6.63;100.00
36354;BME280;22383;51.114;13.666;2023-05-24T02:19:01;67927.56;;;6.62;100.00
36354;BME280;22383;51.114;13.666;2023-05-24T02:21:29;67927.00;;;6.61;100.00
36354;BME280;22383;51.114;13.666;2023-05-24T02:23:56;67922.66;;;6.60;100.00
36354;BME280;22383;51.114;13.666;2023-05-24T02:26:23;67922.13;;;6.59;100.00
36354;BME280;22383;51.114;13.666;2023-05-24T02:28:50;67927.19;;;6.64;100.00
36354;BME280;22383;51.114;13.666;2023-05-24T02:31:18;67923.44;;;6.63;100.00
36354;BME280;22383;51.114;13.666;2023-05-24T02:33:45;67919.50;;;6.59;100.00
36354;BME280;22383;51.114;13.666;2023-05-24T02:36:12;67917.41;;;6.60;100.00
36354;BME280;22383;51.114;13.666;2023-05-24T02:38:39;67920.97;;;6.58;100.00
36354;BME280;22383;51.114;13.666;2023-05-24T02:41:06;67920.41;;;6.58;100.00
36354;BME280;22383;51.114;13.666;2023-05-24T02:43:35;67923.44;;;6.63;100.00
36354;BME280;22383;51.114;13.666;2023-05-24T02:46:02;67918.91;;;6.59;100.00
36354;BME280;22383;51.114;13.666;2023-05-24T02:48:30;67916.28;;;6.59;100.00
36354;BME280;22383;51.114;13.666;2023-05-24T02:50:57;67920.41;;;6.58;100.00
36354;BME280;22383;51.114;13.666;2023-05-24T02:53:24;67917.22;;;6.57;100.00
36354;BME280;22383;51.114;13.666;2023-05-24T02:55:51;67913.25;;;6.54;100.00
36354;BME280;22383;51.114;13.666;2023-05-24T02:58:19;67917.22;;;6.57;100.00
36354;BME280;22383;51.114;13.666;2023-05-24T03:00:48;67913.84;;;6.54;100.00
36354;BME280;22383;51.114;13.666;2023-05-24T03:03:18;67913.84;;;6.54;100.00
36354;BME280;22383;51.114;13.666;2023-05-24T03:05:46;67916.09;;;6.56;100.00
36354;BME280;22383;51.114;13.666;2023-05-24T03:08:13;67913.63;;;6.52;100.00
36354;BME280;22383;51.114;13.666;2023-05-24T03:10:40;67910.44;;;6.51;100.00
36354;BME280;22383;51.114;13.666;2023-05-24T03:13:08;67907.25;;;6.51;100.00
36354;BME280;22383;51.114;13.666;2023-05-24T03:15:36;67913.63;;;6.52;100.00
36354;BME280;22383;51.114;13.666;2023-05-24T03:18:04;67916.47;;;6.54;100.00
36354;BME280;22383;51.114;13.666;2023-05-24T03:20:31;67908.94;;;6.52;100.00
36354;BME280;22383;51.114;13.666;2023-05-24T03:23:00;67910.81;;;6.49;100.00
36354;BME280;22383;51.114;13.666;2023-05-24T03:25:27;67911.75;;;6.48;100.00
36354;BME280;22383;51.114;13.666;2023-05-24T03:27:54;67912.50;;;6.51;100.00
36354;BME280;22383;51.114;13.666;2023-05-24T03:30:23;67903.09;;;6.44;100.00
36354;BME280;22383;51.114;13.666;2023-05-24T03:32:53;67904.59;;;6.43;100.00
36354;BME280;22383;51.114;13.666;2023-05-24T03:35:21;67903.09;;;6.44;100.00
36354;BME280;22383;51.114;13.666;2023-05-24T03:37:48;67907.63;;;6.49;100.00
36354;BME280;22383;51.114;13.666;2023-05-24T03:40:17;67910.06;;;6.53;100.00
36354;BME280;22383;51.114;13.666;2023-05-24T03:42:51;67916.47;;;6.54;100.00
36354;BME280;22383;51.114;13.666;2023-05-24T03:45:28;67913.25;;;6.54;100.00
36354;BME280;22383;51.114;13.666;2023-05-24T03:48:06;67907.63;;;6.49;100.00
36354;BME280;22383;51.114;13.666;2023-05-24T03:50:33;67915.69;;;6.51;100.00
36354;BME280;22383;51.114;13.666;2023-05-24T03:53:01;67901.97;;;6.43;100.00
36354;BME280;22383;51.114;13.666;2023-05-24T03:55:28;67906.47;;;6.48;100.00
36354;BME280;22383;51.114;13.666;2023-05-24T03:57:56;67903.47;;;6.42;100.00
36354;BME280;22383;51.114;13.666;2023-05-24T04:00:24;67896.88;;;6.39;100.00
36354;BME280;22383;51.114;13.666;2023-05-24T04:02:52;67904.59;;;6.43;100.00
36354;BME280;22383;51.114;13.666;2023-05-24T04:05:21;67897.25;;;6.37;100.00
36354;BME280;22383;51.114;13.666;2023-05-24T04:07:53;67895.94;;;6.40;100.00
36354;BME280;22383;51.114;13.666;2023-05-24T04:10:21;67904.78;;;6.46;100.00
36354;BME280;22383;51.114;13.666;2023-05-24T04:12:48;67908.75;;;6.50;100.00
36354;BME280;22383;51.114;13.666;2023-05-24T04:15:16;67908.94;;;6.52;100.00
36354;BME280;22383;51.114;13.666;2023-05-24T04:17:45;67917.78;;;6.58;100.00
36354;BME280;22383;51.114;13.666;2023-05-24T04:20:14;67917.59;;;6.62;100.00
36354;BME280;22383;51.114;13.666;2023-05-24T04:22:42;67930.59;;;6.67;100.00
36354;BME280;22383;51.114;13.666;2023-05-24T04:25:09;67932.84;;;6.69;100.00
36354;BME280;22383;51.114;13.666;2023-05-24T04:27:36;67935.31;;;6.74;100.00
36354;BME280;22383;51.114;13.666;2023-05-24T04:30:04;67944.16;;;6.79;100.00
36354;BME280;22383;51.114;13.666;2023-05-24T04:32:31;67949.44;;;6.87;100.00
36354;BME280;22383;51.114;13.666;2023-05-24T04:35:00;67947.16;;;6.85;100.00
36354;BME280;22383;51.114;13.666;2023-05-24T04:37:30;67949.81;;;6.85;100.00
36354;BME280;22383;51.114;13.666;2023-05-24T04:40:01;67951.50;;;6.86;100.00
36354;BME280;22383;51.114;13.666;2023-05-24T04:42:30;67942.06;;;6.80;100.00
36354;BME280;22383;51.114;13.666;2023-05-24T04:44:58;67938.13;;;6.76;100.00
36354;BME280;22383;51.114;13.666;2023-05-24T04:47:25;67939.44;;;6.73;100.00
36354;BME280;22383;51.114;13.666;2023-05-24T04:49:53;67936.78;;;6.73;100.00
36354;BME280;22383;51.114;13.666;2023-05-24T04:52:20;67940.41;;;6.78;100.00
36354;BME280;22383;51.114;13.666;2023-05-24T04:54:48;67935.31;;;6.74;100.00
36354;BME280;22383;51.114;13.666;2023-05-24T04:57:16;67934.38;;;6.75;100.00
36354;BME280;22383;51.114;13.666;2023-05-24T04:59:43;67939.25;;;6.77;100.00
36354;BME280;22383;51.114;13.666;2023-05-24T05:02:11;67943.59;;;6.79;100.00
36354;BME280;22383;51.114;13.666;2023-05-24T05:04:38;67939.06;;;6.75;100.00
36354;BME280;22383;51.114;13.666;2023-05-24T05:07:05;67937.56;;;6.76;100.00
36354;BME280;22383;51.114;13.666;2023-05-24T05:09:33;67945.06;;;6.78;100.00
36354;BME280;22383;51.114;13.666;2023-05-24T05:12:00;67943.97;;;6.77;100.00
36354;BME280;22383;51.114;13.666;2023-05-24T05:14:27;67937.56;;;6.76;100.00
36354;BME280;22383;51.114;13.666;2023-05-24T05:16:55;67941.88;;;6.77;100.00
36354;BME280;22383;51.114;13.666;2023-05-24T05:19:23;67949.25;;;6.84;100.00
36354;BME280;22383;51.114;13.666;2023-05-24T05:21:53;67955.47;;;6.90;100.00
36354;BME280;22383;51.114;13.666;2023-05-24T05:24:23;67953.19;;;6.88;100.00
36354;BME280;22383;51.114;13.666;2023-05-24T05:27:01;67954.91;;;6.89;100.00
36354;BME280;22383;51.114;13.666;2023-05-24T05:29:35;67952.81;;;6.90;100.00
36354;BME280;22383;51.114;13.666;2023-05-24T05:32:15;67961.88;;;6.98;100.00
36354;BME280;22383;51.114;13.666;2023-05-24T05:34:45;67971.13;;;7.09;100.00
36354;BME280;22383;51.114;13.666;2023-05-24T05:37:12;67991.66;;;7.23;100.00
36354;BME280;22383;51.114;13.666;2023-05-24T05:39:59;68002.78;;;7.37;100.00
36354;BME280;22383;51.114;13.666;2023-05-24T05:42:26;68017.47;;;7.44;100.00
36354;BME280;22383;51.114;13.666;2023-05-24T05:44:54;68007.31;;;7.42;100.00
36354;BME280;22383;51.114;13.666;2023-05-24T05:47:24;68022.19;;;7.50;100.00
36354;BME280;22383;51.114;13.666;2023-05-24T05:49:57;68027.81;;;7.55;100.00
36354;BME280;22383;51.114;13.666;2023-05-24T05:52:24;68030.66;;;7.58;100.00
36354;BME280;22383;51.114;13.666;2023-05-24T05:54:55;68034.06;;;7.61;100.00
36354;BME280;22383;51.114;13.666;2023-05-24T05:57:25;68044.41;;;7.73;100.00
36354;BME280;22383;51.114;13.666;2023-05-24T05:59:55;68058.56;;;7.86;100.00
36354;BME280;22383;51.114;13.666;2023-05-24T06:02:22;68067.63;;;7.94;100.00
36354;BME280;22383;51.114;13.666;2023-05-24T06:04:56;68089.50;;;8.19;100.00
36354;BME280;22383;51.114;13.666;2023-05-24T06:07:26;68109.88;;;8.30;100.00
36354;BME280;22383;51.114;13.666;2023-05-24T06:09:55;68090.47;;;8.17;100.00
36354;BME280;22383;51.114;13.666;2023-05-24T06:12:34;68067.06;;;7.93;100.00
36354;BME280;22383;51.114;13.666;2023-05-24T06:15:01;68062.91;;;7.87;100.00
36354;BME280;22383;51.114;13.666;2023-05-24T06:17:31;68060.84;;;7.88;100.00
36354;BME280;22383;51.114;13.666;2023-05-24T06:20:11;68059.69;;;7.87;100.00
36354;BME280;22383;51.114;13.666;2023-05-24T06:22:47;68075.91;;;7.99;100.00
36354;BME280;22383;51.114;13.666;2023-05-24T06:25:17;68062.72;;;7.92;100.00
36354;BME280;22383;51.114;13.666;2023-05-24T06:27:53;68065.34;;;7.92;100.00
36354;BME280;22383;51.114;13.666;2023-05-24T06:30:22;68091.19;;;8.13;100.00
36354;BME280;22383;51.114;13.666;2023-05-24T06:32:50;68128.19;;;8.49;100.00
36354;BME280;22383;51.114;13.666;2023-05-24T06:35:17;68134.97;;;8.55;100.00
36354;BME280;22383;51.114;13.666;2023-05-24T06:37:48;68129.69;;;8.48;100.00
36354;BME280;22383;51.114;13.666;2023-05-24T06:40:15;68121.41;;;8.43;100.00
36354;BME280;22383;51.114;13.666;2023-05-24T06:42:42;68125.94;;;8.47;100.00
36354;BME280;22383;51.114;13.666;2023-05-24T06:45:10;68112.91;;;8.35;100.00
36354;BME280;22383;51.114;13.666;2023-05-24T06:47:41;68115.53;;;8.35;100.00
36354;BME280;22383;51.114;13.666;2023-05-24T06:50:11;68119.66;;;8.41;100.00
36354;BME280;22383;51.114;13.666;2023-05-24T06:52:45;68121.03;;;8.45;100.00
36354;BME280;22383;51.114;13.666;2023-05-24T06:55:19;68108.56;;;8.33;100.00
36354;BME280;22383;51.114;13.666;2023-05-24T06:57:49;68098.00;;;8.19;100.00
36354;BME280;22383;51.114;13.666;2023-05-24T07:00:23;68096.13;;;8.22;100.00
36354;BME280;22383;51.114;13.666;2023-05-24T07:02:55;68091.03;;;8.18;100.00
36354;BME280;22383;51.114;13.666;2023-05-24T07:05:27;68097.06;;;8.21;100.00
36354;BME280;22383;51.114;13.666;2023-05-24T07:08:04;68092.50;;;8.17;100.00
36354;BME280;22383;51.114;13.666;2023-05-24T07:10:39;68094.41;;;8.21;100.00
36354;BME280;22383;51.114;13.666;2023-05-24T07:13:21;68095.34;;;8.19;100.00
36354;BME280;22383;51.114;13.666;2023-05-24T07:15:51;68078.38;;;8.04;100.00
36354;BME280;22383;51.114;13.666;2023-05-24T07:18:26;68069.31;;;7.95;100.00
36354;BME280;22383;51.114;13.666;2023-05-24T07:20:53;68062.94;;;7.94;100.00
36354;BME280;22383;51.114;13.666;2023-05-24T07:23:21;68069.91;;;7.96;100.00
36354;BME280;22383;51.114;13.666;2023-05-24T07:25:49;68068.19;;;7.94;100.00
36354;BME280;22383;51.114;13.666;2023-05-24T07:28:17;68057.66;;;7.87;100.00
36354;BME280;22383;51.114;13.666;2023-05-24T07:30:46;68052.53;;;7.83;100.00
36354;BME280;22383;51.114;13.666;2023-05-24T07:33:14;68057.66;;;7.87;100.00
36354;BME280;22383;51.114;13.666;2023-05-24T07:35:41;68076.31;;;8.04;100.00
36354;BME280;22383;51.114;13.666;2023-05-24T07:38:09;68094.78;;;8.19;100.00
36354;BME280;22383;51.114;13.666;2023-05-24T07:40:37;68107.41;;;8.32;100.00
36354;BME280;22383;51.114;13.666;2023-05-24T07:43:10;68112.50;;;8.37;100.00
36354;BME280;22383;51.114;13.666;2023-05-24T07:45:40;68125.19;;;8.44;100.00
36354;BME280;22383;51.114;13.666;2023-05-24T07:48:08;68111.38;;;8.36;100.00
36354;BME280;22383;51.114;13.666;2023-05-24T07:50:41;68099.88;;;8.23;100.00
36354;BME280;22383;51.114;13.666;2023-05-24T07:53:15;68090.06;;;8.12;100.00
36354;BME280;22383;51.114;13.666;2023-05-24T07:55:45;68086.09;;;8.08;100.00
36354;BME280;22383;51.114;13.666;2023-05-24T07:58:12;68092.50;;;8.17;100.00
36354;BME280;22383;51.114;13.666;2023-05-24T08:00:40;68107.78;;;8.30;100.00
36354;BME280;22383;51.114;13.666;2023-05-24T08:03:07;68099.31;;;8.23;100.00
36354;BME280;22383;51.114;13.666;2023-05-24T08:05:40;68095.16;;;8.17;100.00
36354;BME280;22383;51.114;13.666;2023-05-24T08:08:08;68091.56;;;8.18;100.00
36354;BME280;22383;51.114;13.666;2023-05-24T08:10:37;68094.22;;;8.18;100.00
36354;BME280;22383;51.114;13.666;2023-05-24T08:13:12;68102.72;;;8.26;100.00
36354;BME280;22383;51.114;13.666;2023-05-24T08:15:45;68111.19;;;8.33;100.00
36354;BME280;22383;51.114;13.666;2023-05-24T08:18:12;68119.91;;;8.44;100.00
36354;BME280;22383;51.114;13.666;2023-05-24T08:20:53;68133.84;;;8.54;100.00
36354;BME280;22383;51.114;13.666;2023-05-24T08:23:24;68140.84;;;8.63;100.00
36354;BME280;22383;51.114;13.666;2023-05-24T08:25:51;68132.34;;;8.55;100.00
36354;BME280;22383;51.114;13.666;2023-05-24T08:28:21;68137.81;;;8.58;100.00
36354;BME280;22383;51.114;13.666;2023-05-24T08:30:48;68162.72;;;8.80;100.00
36354;BME280;22383;51.114;13.666;2023-05-24T08:33:16;68182.72;;;9.01;100.00
36354;BME280;22383;51.114;13.666;2023-05-24T08:35:43;68199.91;;;9.12;100.00
36354;BME280;22383;51.114;13.666;2023-05-24T08:38:14;68218.78;;;9.31;100.00
36354;BME280;22383;51.114;13.666;2023-05-24T08:40:47;68240.69;;;9.49;100.00
36354;BME280;22383;51.114;13.666;2023-05-24T08:43:16;68220.13;;;9.35;100.00
36354;BME280;22383;51.114;13.666;2023-05-24T08:45:47;68207.09;;;9.23;100.00
36354;BME280;22383;51.114;13.666;2023-05-24T08:48:15;68210.28;;;9.23;100.00
36354;BME280;22383;51.114;13.666;2023-05-24T08:50:48;68199.53;;;9.14;100.00
36354;BME280;22383;51.114;13.666;2023-05-24T08:53:15;68194.63;;;9.12;100.00
36354;BME280;22383;51.114;13.666;2023-05-24T08:55:43;68204.63;;;9.18;100.00
36354;BME280;22383;51.114;13.666;2023-05-24T08:58:12;68203.69;;;9.20;100.00
36354;BME280;22383;51.114;13.666;2023-05-24T09:00:39;68202.19;;;9.21;100.00
36354;BME280;22383;51.114;13.666;2023-05-24T09:03:17;68206.69;;;9.18;100.00
36354;BME280;22383;51.114;13.666;2023-05-24T09:05:48;68211.03;;;9.26;100.00
36354;BME280;22383;51.114;13.666;2023-05-24T09:08:19;68202.34;;;9.16;100.00
36354;BME280;22383;51.114;13.666;2023-05-24T09:10:53;68230.47;;;9.39;100.00
36354;BME280;22383;51.114;13.666;2023-05-24T09:13:23;68264.84;;;9.75;100.00
36354;BME280;22383;51.114;13.666;2023-05-24T09:15:52;68307.53;;;10.09;100.00
36354;BME280;22383;51.114;13.666;2023-05-24T09:18:19;68396.00;;;10.89;100.00
36354;BME280;22383;51.114;13.666;2023-05-24T09:20:47;68446.09;;;11.37;100.00
36354;BME280;22383;51.114;13.666;2023-05-24T09:23:14;68517.81;;;12.04;100.00
36354;BME280;22383;51.114;13.666;2023-05-24T09:25:45;68475.22;;;11.66;100.00
36354;BME280;22383;51.114;13.666;2023-05-24T09:28:18;68466.34;;;11.53;100.00
36354;BME280;22383;51.114;13.666;2023-05-24T09:30:59;68427.00;;;11.22;100.00
36354;BME280;22383;51.114;13.666;2023-05-24T09:33:32;68391.28;;;10.90;100.00
36354;BME280;22383;51.114;13.666;2023-05-24T09:36:03;68383.91;;;10.83;100.00
36354;BME280;22383;51.114;13.666;2023-05-24T09:38:31;68389.19;;;10.83;100.00
36354;BME280;22383;51.114;13.666;2023-05-24T09:41:06;68405.47;;;11.03;100.00
36354;BME280;22383;51.114;13.666;2023-05-24T09:43:48;68390.50;;;10.87;100.00
36354;BME280;22383;51.114;13.666;2023-05-24T09:46:18;68422.66;;;11.13;100.00
36354;BME280;22383;51.114;13.666;2023-05-24T09:48:55;68430.22;;;11.23;100.00
36354;BME280;22383;51.114;13.666;2023-05-24T09:51:26;68423.41;;;11.16;100.00
36354;BME280;22383;51.114;13.666;2023-05-24T09:53:57;68435.34;;;11.27;100.00
36354;BME280;22383;51.114;13.666;2023-05-24T09:56:38;68471.81;;;11.63;100.00
36354;BME280;22383;51.114;13.666;2023-05-24T09:59:06;68508.72;;;11.96;100.00
36354;BME280;22383;51.114;13.666;2023-05-24T10:01:34;68433.03;;;11.25;100.00
36354;BME280;22383;51.114;13.666;2023-05-24T10:04:02;68484.69;;;11.72;100.00
36354;BME280;22383;51.114;13.666;2023-05-24T10:06:37;68542.22;;;12.26;100.00
36354;BME280;22383;51.114;13.666;2023-05-24T10:09:10;68589.16;;;12.66;100.00
36354;BME280;22383;51.114;13.666;2023-05-24T10:11:42;68602.41;;;12.81;100.00
36354;BME280;22383;51.114;13.666;2023-05-24T10:14:10;68651.44;;;13.28;100.00
36354;BME280;22383;51.114;13.666;2023-05-24T10:16:38;68587.28;;;12.62;100.00
36354;BME280;22383;51.114;13.666;2023-05-24T10:19:05;68568.34;;;12.50;100.00
36354;BME280;22383;51.114;13.666;2023-05-24T10:21:39;68650.50;;;13.22;100.00
36354;BME280;22383;51.114;13.666;2023-05-24T10:24:16;68682.16;;;13.48;100.00
36354;BME280;22383;51.114;13.666;2023-05-24T10:26:48;68623.03;;;12.95;100.00
36354;BME280;22383;51.114;13.666;2023-05-24T10:31:58;68516.66;;;12.03;100.00
36354;BME280;22383;51.114;13.666;2023-05-24T10:34:26;68581.19;;;12.59;100.00
36354;BME280;22383;51.114;13.666;2023-05-24T10:36:53;68598.25;;;12.75;100.00
36354;BME280;22383;51.114;13.666;2023-05-24T10:39:21;68625.69;;;13.02;100.00
36354;BME280;22383;51.114;13.666;2023-05-24T10:41:49;68693.69;;;13.61;100.00
36354;BME280;22383;51.114;13.666;2023-05-24T10:44:17;68739.91;;;14.05;100.00
36354;BME280;22383;51.114;13.666;2023-05-24T10:49:33;68749.75;;;14.16;100.00
36354;BME280;22383;51.114;13.666;2023-05-24T10:52:09;68830.53;;;14.89;100.00
36354;BME280;22383;51.114;13.666;2023-05-24T10:54:37;68724.00;;;13.91;100.00
36354;BME280;22383;51.114;13.666;2023-05-24T10:57:21;68619.81;;;12.94;100.00
36354;BME280;22383;51.114;13.666;2023-05-24T10:59:50;68578.00;;;12.59;100.00
36354;BME280;22383;51.114;13.666;2023-05-24T11:02:18;68721.53;;;13.86;100.00
36354;BME280;22383;51.114;13.666;2023-05-24T11:04:46;68673.44;;;13.45;100.00
36354;BME280;22383;51.114;13.666;2023-05-24T11:07:17;68718.31;;;13.86;100.00
36354;BME280;22383;51.114;13.666;2023-05-24T11:09:47;68731.75;;;13.95;100.00
36354;BME280;22383;51.114;13.666;2023-05-24T11:12:19;68714.72;;;13.80;100.00
36354;BME280;22383;51.114;13.666;2023-05-24T11:14:47;68631.56;;;13.02;100.00
36354;BME280;22383;51.114;13.666;2023-05-24T11:17:16;68594.47;;;12.66;100.00
36354;BME280;22383;51.114;13.666;2023-05-24T11:19:53;68578.75;;;12.55;100.00
36354;BME280;22383;51.114;13.666;2023-05-24T11:22:22;68582.13;;;12.65;100.00
36354;BME280;22383;51.114;13.666;2023-05-24T11:24:51;68584.03;;;12.62;100.00
36354;BME280;22383;51.114;13.666;2023-05-24T11:27:19;68548.44;;;12.32;100.00
36354;BME280;22383;51.114;13.666;2023-05-24T11:29:48;68562.06;;;12.44;100.00
36354;BME280;22383;51.114;13.666;2023-05-24T11:32:16;68536.34;;;12.19;100.00
36354;BME280;22383;51.114;13.666;2023-05-24T11:34:48;68540.88;;;12.23;100.00
36354;BME280;22383;51.114;13.666;2023-05-24T11:37:17;68542.03;;;12.24;100.00
36354;BME280;22383;51.114;13.666;2023-05-24T11:39:48;68558.69;;;12.41;100.00
36354;BME280;22383;51.114;13.666;2023-05-24T11:42:17;68648.00;;;13.24;100.00
36354;BME280;22383;51.114;13.666;2023-05-24T11:44:47;68708.47;;;13.74;100.00
36354;BME280;22383;51.114;13.666;2023-05-24T11:47:19;68721.53;;;13.86;100.00
36354;BME280;22383;51.114;13.666;2023-05-24T11:49:50;68684.59;;;13.53;100.00
36354;BME280;22383;51.114;13.666;2023-05-24T11:52:19;68692.00;;;13.59;100.00
36354;BME280;22383;51.114;13.666;2023-05-24T11:54:47;68714.91;;;13.83;100.00
36354;BME280;22383;51.114;13.666;2023-05-24T11:57:17;68714.72;;;13.80;100.00
36354;BME280;22383;51.114;13.666;2023-05-24T11:59:45;68698.81;;;13.66;100.00
36354;BME280;22383;51.114;13.666;2023-05-24T12:02:13;68725.91;;;13.88;100.00
36354;BME280;22383;51.114;13.666;2023-05-24T12:04:41;68702.41;;;13.71;100.00
36354;BME280;22383;51.114;13.666;2023-05-24T12:07:10;68613.94;;;12.86;100.00
36354;BME280;22383;51.114;13.666;2023-05-24T12:09:38;68571.00;;;12.50;100.00
36354;BME280;22383;51.114;13.666;2023-05-24T12:12:06;68529.34;;;12.10;100.00
36354;BME280;22383;51.114;13.666;2023-05-24T12:14:34;68533.88;;;12.14;100.00
36354;BME280;22383;51.114;13.666;2023-05-24T12:17:01;68545.06;;;12.29;100.00
36354;BME280;22383;51.114;13.666;2023-05-24T12:19:31;68533.34;;;12.14;100.00
36354;BME280;22383;51.114;13.666;2023-05-24T12:22:04;68626.81;;;13.03;100.00
36354;BME280;22383;51.114;13.666;2023-05-24T12:24:33;68700.69;;;13.70;100.00
36354;BME280;22383;51.114;13.666;2023-05-24T12:27:02;68791.47;;;14.49;100.00
36354;BME280;22383;51.114;13.666;2023-05-24T12:29:38;68811.56;;;14.70;100.00
36354;BME280;22383;51.114;13.666;2023-05-24T12:32:11;68790.50;;;14.51;100.00
36354;BME280;22383;51.114;13.666;2023-05-24T12:34:41;68830.53;;;14.89;100.00
36354;BME280;22383;51.114;13.666;2023-05-24T12:37:10;68873.56;;;15.26;100.00
36354;BME280;22383;51.114;13.666;2023-05-24T12:39:40;68881.94;;;15.31;100.00
36354;BME280;22383;51.114;13.666;2023-05-24T12:42:10;68821.81;;;14.79;99.24
36354;BME280;22383;51.114;13.666;2023-05-24T12:44:39;68843.41;;;14.99;100.00
36354;BME280;22383;51.114;13.666;2023-05-24T12:47:07;68849.09;;;15.04;100.00
36354;BME280;22383;51.114;13.666;2023-05-24T12:49:35;68792.22;;;14.52;100.00
36354;BME280;22383;51.114;13.666;2023-05-24T12:52:03;68712.63;;;13.80;100.00
36354;BME280;22383;51.114;13.666;2023-05-24T12:54:31;68711.69;;;13.75;100.00
36354;BME280;22383;51.114;13.666;2023-05-24T12:56:58;68773.84;;;14.33;100.00
36354;BME280;22383;51.114;13.666;2023-05-24T12:59:27;68815.56;;;14.73;100.00
36354;BME280;22383;51.114;13.666;2023-05-24T13:01:55;68850.03;;;15.09;100.00
36354;BME280;22383;51.114;13.666;2023-05-24T13:04:23;68881.94;;;15.31;100.00
36354;BME280;22383;51.114;13.666;2023-05-24T13:06:54;68881.38;;;15.30;99.42
36354;BME280;22383;51.114;13.666;2023-05-24T13:09:22;68892.00;;;15.38;100.00
36354;BME280;22383;51.114;13.666;2023-05-24T13:11:50;68920.03;;;15.65;100.00
36354;BME280;22383;51.114;13.666;2023-05-24T13:14:19;68941.31;;;15.87;85.19